Aviation Digital Data Service (ADDS)

Output produced by METARs form (1012 UTC 07 December 2022)
found at http://www.aviationweather.gov/metar/data/
 
KILE 070956Z AUTO 17006KT 10SM OVC017 21/19 A3011 RMK AO2 SLP186 T02110194
KILE 070929Z AUTO 17008KT 10SM OVC017 21/19 A3010 RMK AO2
KILE 070856Z AUTO 18008KT 10SM OVC013 22/20 A3010 RMK AO2 SLP185 T02170200 53009
KILE 070826Z AUTO 20006KT 10SM OVC013 22/20 A3010 RMK AO2
KILE 070803Z AUTO 17005KT 10SM OVC015 22/20 A3009 RMK AO2
KILE 070756Z AUTO 19006KT 10SM OVC013 22/20 A3009 RMK AO2 SLP180 T02170200
KILE 070718Z AUTO 19006KT 10SM OVC013 22/20 A3009 RMK AO2
KILE 070656Z AUTO 20008KT 10SM OVC015 22/20 A3008 RMK AO2 SLP177 T02170200
KILE 070627Z AUTO 22004KT 10SM OVC013 21/20 A3009 RMK AO2
KILE 070556Z AUTO 20004KT 10SM OVC015 21/20 A3008 RMK AO2 SLP175 T02110200 10222 20206 402560167 53021
KILE 070536Z AUTO 19006KT 10SM OVC015 21/20 A3007 RMK AO2
KILE 070524Z AUTO 20007KT 10SM BKN013 21/20 A3006 RMK AO2
KILE 070456Z AUTO 18009KT 10SM CLR 21/19 A3005 RMK AO2 SLP167 T02110194
KILE 070356Z AUTO 16009KT 10SM CLR 21/19 A3002 RMK AO2 SLP158 T02060189
KILE 070256Z AUTO 17005KT 10SM CLR 21/19 A3001 RMK AO2 SLP156 T02110189 51012
KILE 070156Z AUTO 16004KT 10SM CLR 21/19 A3001 RMK AO2 SLP152 T02060189
KILE 070056Z AUTO 21004KT 10SM CLR 22/19 A2999 RMK AO2 SLP148 T02170189
KILE 062356Z AUTO 20004KT 10SM CLR 22/19 A2998 RMK AO2 SLP142 T02220189 10256 20222 51016
KILE 062256Z AUTO 18009KT 10SM CLR 24/19 A2996 RMK AO2 SLP136 T02390194
KILE 062156Z AUTO 19010KT 10SM CLR 24/19 A2995 RMK AO2 SLP132 T02390189
KILE 062056Z AUTO 18013KT 10SM CLR 24/19 A2993 RMK AO2 SLP128 T02390189 56011
KILE 061956Z AUTO 19011KT 10SM FEW025 26/19 A2993 RMK AO2 SLP128 T02560189
KILE 061856Z AUTO 20011KT 10SM FEW022 24/19 A2995 RMK AO2 SLP135 T02390189
KILE 061756Z AUTO 20009KT 10SM FEW020 24/19 A2996 RMK AO2 SLP138 T02390189 10239 20183 50003
KILE 061744Z AUTO 20009KT 10SM SCT020 24/19 A2997 RMK AO2
KILE 061656Z AUTO 20007KT 10SM OVC018 23/19 A2999 RMK AO2 SLP147 T02280189
KILE 061612Z AUTO 20010KT 10SM BKN016 22/18 A2998 RMK AO2
KILE 061556Z AUTO 19011KT 10SM SCT017 22/18 A2997 RMK AO2 SLP143 T02220183
KILE 061456Z AUTO 17008KT 10SM 21/18 A2996 RMK AO2 SLP135 T02060183 51019
KILE 061356Z AUTO 18006KT 10SM 19/18 A2994 RMK AO2 SLP132 T01890178
KILE 061256Z AUTO 19006KT 10SM 18/18 A2993 RMK AO2 SLP127 T01830178 $
KILE 061156Z AUTO 19006KT 10SM 18/17 A2990 RMK AO2 SLP116 T01830172 10200 20167 53006 $
KILE 061056Z AUTO 18005KT 10SM 17/17 A2989 RMK AO2 SLP112 T01720172 $